sensor_id;sensor_type;location;lat;lon;timestamp;P1;durP1;ratioP1;P2;durP2;ratioP2
9294;SDS011;4686;44.496;11.324;2023-01-15T00:01:16;87.23;;;66.23;;
9294;SDS011;4686;44.496;11.324;2023-01-15T00:03:44;92.77;;;70.00;;
9294;SDS011;4686;44.496;11.324;2023-01-15T00:06:14;95.93;;;68.87;;
9294;SDS011;4686;44.496;11.324;2023-01-15T00:08:41;109.70;;;74.40;;
9294;SDS011;4686;44.496;11.324;2023-01-15T00:11:08;96.70;;;69.40;;
9294;SDS011;4686;44.496;11.324;2023-01-15T00:13:36;92.97;;;69.87;;
9294;SDS011;4686;44.496;11.324;2023-01-15T00:16:04;90.40;;;66.83;;
9294;SDS011;4686;44.496;11.324;2023-01-15T00:18:31;95.53;;;70.30;;
9294;SDS011;4686;44.496;11.324;2023-01-15T00:20:58;101.73;;;72.20;;
9294;SDS011;4686;44.496;11.324;2023-01-15T00:23:27;101.77;;;72.70;;
9294;SDS011;4686;44.496;11.324;2023-01-15T00:26:12;111.07;;;70.07;;
9294;SDS011;4686;44.496;11.324;2023-01-15T00:28:57;101.70;;;71.67;;
9294;SDS011;4686;44.496;11.324;2023-01-15T00:31:25;100.47;;;68.10;;
9294;SDS011;4686;44.496;11.324;2023-01-15T00:33:52;96.40;;;65.97;;
9294;SDS011;4686;44.496;11.324;2023-01-15T00:36:19;96.37;;;65.30;;
9294;SDS011;4686;44.496;11.324;2023-01-15T00:38:48;90.40;;;63.53;;
9294;SDS011;4686;44.496;11.324;2023-01-15T00:41:15;89.80;;;59.20;;
9294;SDS011;4686;44.496;11.324;2023-01-15T00:43:42;77.90;;;55.50;;
9294;SDS011;4686;44.496;11.324;2023-01-15T00:46:10;80.40;;;56.43;;
9294;SDS011;4686;44.496;11.324;2023-01-15T00:48:37;88.10;;;59.33;;
9294;SDS011;4686;44.496;11.324;2023-01-15T00:51:04;79.30;;;56.80;;
9294;SDS011;4686;44.496;11.324;2023-01-15T00:53:32;89.47;;;59.70;;
9294;SDS011;4686;44.496;11.324;2023-01-15T00:56:01;73.50;;;55.43;;
9294;SDS011;4686;44.496;11.324;2023-01-15T00:58:28;81.27;;;57.03;;
9294;SDS011;4686;44.496;11.324;2023-01-15T01:00:56;90.97;;;62.93;;
9294;SDS011;4686;44.496;11.324;2023-01-15T01:03:23;114.20;;;72.33;;
9294;SDS011;4686;44.496;11.324;2023-01-15T01:05:51;91.97;;;64.53;;
9294;SDS011;4686;44.496;11.324;2023-01-15T01:08:18;79.37;;;58.00;;
9294;SDS011;4686;44.496;11.324;2023-01-15T01:10:45;83.27;;;58.23;;
9294;SDS011;4686;44.496;11.324;2023-01-15T01:13:13;83.63;;;59.57;;
9294;SDS011;4686;44.496;11.324;2023-01-15T01:15:41;78.70;;;58.67;;
9294;SDS011;4686;44.496;11.324;2023-01-15T01:18:08;75.23;;;57.87;;
9294;SDS011;4686;44.496;11.324;2023-01-15T01:20:36;78.90;;;56.40;;
9294;SDS011;4686;44.496;11.324;2023-01-15T01:23:03;79.17;;;60.07;;
9294;SDS011;4686;44.496;11.324;2023-01-15T01:25:31;77.43;;;57.07;;
9294;SDS011;4686;44.496;11.324;2023-01-15T01:27:58;80.17;;;55.93;;
9294;SDS011;4686;44.496;11.324;2023-01-15T01:30:26;76.23;;;56.20;;
9294;SDS011;4686;44.496;11.324;2023-01-15T01:32:54;77.00;;;55.10;;
9294;SDS011;4686;44.496;11.324;2023-01-15T01:35:21;75.00;;;57.10;;
9294;SDS011;4686;44.496;11.324;2023-01-15T01:37:49;78.40;;;57.80;;
9294;SDS011;4686;44.496;11.324;2023-01-15T01:40:16;78.60;;;55.77;;
9294;SDS011;4686;44.496;11.324;2023-01-15T01:42:43;76.00;;;55.43;;
9294;SDS011;4686;44.496;11.324;2023-01-15T01:45:15;71.67;;;54.53;;
9294;SDS011;4686;44.496;11.324;2023-01-15T01:47:45;82.60;;;58.63;;
9294;SDS011;4686;44.496;11.324;2023-01-15T01:50:13;80.20;;;55.37;;
9294;SDS011;4686;44.496;11.324;2023-01-15T01:52:41;75.50;;;56.70;;
9294;SDS011;4686;44.496;11.324;2023-01-15T01:55:10;77.20;;;55.90;;
9294;SDS011;4686;44.496;11.324;2023-01-15T01:57:38;84.60;;;59.10;;
9294;SDS011;4686;44.496;11.324;2023-01-15T02:00:08;79.80;;;56.77;;
9294;SDS011;4686;44.496;11.324;2023-01-15T02:02:36;76.60;;;55.97;;
9294;SDS011;4686;44.496;11.324;2023-01-15T02:05:06;83.17;;;60.30;;
9294;SDS011;4686;44.496;11.324;2023-01-15T02:07:34;74.53;;;54.87;;
9294;SDS011;4686;44.496;11.324;2023-01-15T02:10:01;77.53;;;56.40;;
9294;SDS011;4686;44.496;11.324;2023-01-15T02:12:30;77.83;;;55.90;;
9294;SDS011;4686;44.496;11.324;2023-01-15T02:15:01;83.03;;;56.60;;
9294;SDS011;4686;44.496;11.324;2023-01-15T02:17:32;83.07;;;58.30;;
9294;SDS011;4686;44.496;11.324;2023-01-15T02:20:09;74.87;;;57.93;;
9294;SDS011;4686;44.496;11.324;2023-01-15T02:22:43;79.40;;;57.47;;
9294;SDS011;4686;44.496;11.324;2023-01-15T02:25:15;81.30;;;62.10;;
9294;SDS011;4686;44.496;11.324;2023-01-15T02:27:46;84.03;;;59.47;;
9294;SDS011;4686;44.496;11.324;2023-01-15T02:30:15;83.77;;;57.17;;
9294;SDS011;4686;44.496;11.324;2023-01-15T02:32:48;81.03;;;61.03;;
9294;SDS011;4686;44.496;11.324;2023-01-15T02:35:17;79.43;;;58.07;;
9294;SDS011;4686;44.496;11.324;2023-01-15T02:37:46;79.90;;;59.23;;
9294;SDS011;4686;44.496;11.324;2023-01-15T02:40:15;79.43;;;57.67;;
9294;SDS011;4686;44.496;11.324;2023-01-15T02:42:43;80.33;;;58.60;;
9294;SDS011;4686;44.496;11.324;2023-01-15T02:45:14;80.13;;;59.57;;
9294;SDS011;4686;44.496;11.324;2023-01-15T02:47:42;84.63;;;59.90;;
9294;SDS011;4686;44.496;11.324;2023-01-15T02:50:11;82.30;;;59.90;;
9294;SDS011;4686;44.496;11.324;2023-01-15T02:52:40;87.20;;;58.67;;
9294;SDS011;4686;44.496;11.324;2023-01-15T02:55:11;77.93;;;58.83;;
9294;SDS011;4686;44.496;11.324;2023-01-15T02:57:39;84.37;;;59.20;;
9294;SDS011;4686;44.496;11.324;2023-01-15T03:00:08;75.67;;;57.87;;
9294;SDS011;4686;44.496;11.324;2023-01-15T03:02:38;82.30;;;59.67;;
9294;SDS011;4686;44.496;11.324;2023-01-15T03:05:08;83.83;;;60.70;;
9294;SDS011;4686;44.496;11.324;2023-01-15T03:07:39;83.47;;;58.93;;
9294;SDS011;4686;44.496;11.324;2023-01-15T03:10:08;81.90;;;59.10;;
9294;SDS011;4686;44.496;11.324;2023-01-15T03:12:37;89.23;;;61.23;;
9294;SDS011;4686;44.496;11.324;2023-01-15T03:15:26;83.43;;;59.67;;
9294;SDS011;4686;44.496;11.324;2023-01-15T03:18:16;77.27;;;58.90;;
9294;SDS011;4686;44.496;11.324;2023-01-15T03:20:46;85.47;;;60.73;;
9294;SDS011;4686;44.496;11.324;2023-01-15T03:23:16;80.97;;;60.10;;
9294;SDS011;4686;44.496;11.324;2023-01-15T03:25:47;81.97;;;59.90;;
9294;SDS011;4686;44.496;11.324;2023-01-15T03:28:15;85.43;;;62.70;;
9294;SDS011;4686;44.496;11.324;2023-01-15T03:30:44;86.70;;;60.90;;
9294;SDS011;4686;44.496;11.324;2023-01-15T03:33:13;82.47;;;60.30;;
9294;SDS011;4686;44.496;11.324;2023-01-15T03:35:46;82.47;;;62.80;;
9294;SDS011;4686;44.496;11.324;2023-01-15T03:38:18;82.40;;;61.00;;
9294;SDS011;4686;44.496;11.324;2023-01-15T03:40:49;80.97;;;60.53;;
9294;SDS011;4686;44.496;11.324;2023-01-15T03:43:18;79.70;;;59.57;;
9294;SDS011;4686;44.496;11.324;2023-01-15T03:46:05;92.97;;;67.70;;
9294;SDS011;4686;44.496;11.324;2023-01-15T03:48:35;89.20;;;63.60;;
9294;SDS011;4686;44.496;11.324;2023-01-15T03:51:05;86.83;;;62.17;;
9294;SDS011;4686;44.496;11.324;2023-01-15T03:53:36;87.37;;;65.10;;
9294;SDS011;4686;44.496;11.324;2023-01-15T03:56:08;87.27;;;61.67;;
9294;SDS011;4686;44.496;11.324;2023-01-15T03:58:39;83.27;;;60.47;;
9294;SDS011;4686;44.496;11.324;2023-01-15T04:01:08;84.40;;;64.03;;
9294;SDS011;4686;44.496;11.324;2023-01-15T04:03:37;79.50;;;62.47;;
9294;SDS011;4686;44.496;11.324;2023-01-15T04:06:06;87.20;;;62.17;;
9294;SDS011;4686;44.496;11.324;2023-01-15T04:08:36;80.37;;;58.80;;
9294;SDS011;4686;44.496;11.324;2023-01-15T04:11:04;78.80;;;59.30;;
9294;SDS011;4686;44.496;11.324;2023-01-15T04:13:31;80.37;;;59.50;;
9294;SDS011;4686;44.496;11.324;2023-01-15T04:15:59;79.27;;;54.37;;
9294;SDS011;4686;44.496;11.324;2023-01-15T04:18:26;84.20;;;58.93;;
9294;SDS011;4686;44.496;11.324;2023-01-15T04:20:53;73.27;;;55.97;;
9294;SDS011;4686;44.496;11.324;2023-01-15T04:23:22;74.20;;;56.40;;
9294;SDS011;4686;44.496;11.324;2023-01-15T04:25:49;74.23;;;55.50;;
9294;SDS011;4686;44.496;11.324;2023-01-15T04:28:16;74.30;;;56.30;;
9294;SDS011;4686;44.496;11.324;2023-01-15T04:30:44;79.00;;;58.47;;
9294;SDS011;4686;44.496;11.324;2023-01-15T04:33:12;75.67;;;55.70;;
9294;SDS011;4686;44.496;11.324;2023-01-15T04:35:39;82.40;;;57.50;;
9294;SDS011;4686;44.496;11.324;2023-01-15T04:38:07;82.63;;;55.67;;
9294;SDS011;4686;44.496;11.324;2023-01-15T04:40:35;84.70;;;58.87;;
9294;SDS011;4686;44.496;11.324;2023-01-15T04:43:20;82.97;;;61.30;;
9294;SDS011;4686;44.496;11.324;2023-01-15T04:46:05;80.33;;;60.23;;
9294;SDS011;4686;44.496;11.324;2023-01-15T04:48:32;86.90;;;63.30;;
9294;SDS011;4686;44.496;11.324;2023-01-15T04:51:01;83.63;;;61.47;;
9294;SDS011;4686;44.496;11.324;2023-01-15T04:53:28;91.90;;;62.60;;
9294;SDS011;4686;44.496;11.324;2023-01-15T04:55:59;85.60;;;63.50;;
9294;SDS011;4686;44.496;11.324;2023-01-15T04:58:27;87.50;;;63.20;;
9294;SDS011;4686;44.496;11.324;2023-01-15T05:00:54;87.93;;;64.77;;
9294;SDS011;4686;44.496;11.324;2023-01-15T05:03:21;89.37;;;63.27;;
9294;SDS011;4686;44.496;11.324;2023-01-15T05:05:49;85.37;;;64.07;;
9294;SDS011;4686;44.496;11.324;2023-01-15T05:08:16;92.43;;;63.70;;
9294;SDS011;4686;44.496;11.324;2023-01-15T05:10:43;87.27;;;64.80;;
9294;SDS011;4686;44.496;11.324;2023-01-15T05:13:12;89.90;;;65.30;;
9294;SDS011;4686;44.496;11.324;2023-01-15T05:15:40;83.87;;;62.80;;
9294;SDS011;4686;44.496;11.324;2023-01-15T05:18:10;80.60;;;61.10;;
9294;SDS011;4686;44.496;11.324;2023-01-15T05:20:39;92.97;;;65.97;;
9294;SDS011;4686;44.496;11.324;2023-01-15T05:23:06;99.83;;;73.73;;
9294;SDS011;4686;44.496;11.324;2023-01-15T05:25:34;92.17;;;70.13;;
9294;SDS011;4686;44.496;11.324;2023-01-15T05:28:02;90.53;;;66.27;;
9294;SDS011;4686;44.496;11.324;2023-01-15T05:30:33;97.10;;;68.10;;
9294;SDS011;4686;44.496;11.324;2023-01-15T05:33:00;80.30;;;59.73;;
9294;SDS011;4686;44.496;11.324;2023-01-15T05:35:27;78.67;;;60.23;;
9294;SDS011;4686;44.496;11.324;2023-01-15T05:37:55;90.10;;;63.47;;
9294;SDS011;4686;44.496;11.324;2023-01-15T05:40:22;88.23;;;65.87;;
9294;SDS011;4686;44.496;11.324;2023-01-15T05:42:50;91.40;;;65.20;;
9294;SDS011;4686;44.496;11.324;2023-01-15T05:45:17;90.40;;;66.30;;
9294;SDS011;4686;44.496;11.324;2023-01-15T05:47:46;88.57;;;67.73;;
9294;SDS011;4686;44.496;11.324;2023-01-15T05:50:13;88.93;;;64.33;;
9294;SDS011;4686;44.496;11.324;2023-01-15T05:52:40;80.00;;;60.90;;
9294;SDS011;4686;44.496;11.324;2023-01-15T05:55:08;68.37;;;51.60;;
9294;SDS011;4686;44.496;11.324;2023-01-15T05:57:35;66.67;;;48.20;;
9294;SDS011;4686;44.496;11.324;2023-01-15T06:00:02;68.50;;;51.20;;
9294;SDS011;4686;44.496;11.324;2023-01-15T06:02:30;66.57;;;46.83;;
9294;SDS011;4686;44.496;11.324;2023-01-15T06:04:58;66.87;;;50.40;;
9294;SDS011;4686;44.496;11.324;2023-01-15T06:07:25;62.40;;;48.13;;
9294;SDS011;4686;44.496;11.324;2023-01-15T06:09:53;64.20;;;49.37;;
9294;SDS011;4686;44.496;11.324;2023-01-15T06:12:20;72.87;;;56.07;;
9294;SDS011;4686;44.496;11.324;2023-01-15T06:14:48;76.00;;;57.40;;
9294;SDS011;4686;44.496;11.324;2023-01-15T06:17:15;79.83;;;60.47;;
9294;SDS011;4686;44.496;11.324;2023-01-15T06:19:42;93.27;;;63.30;;
9294;SDS011;4686;44.496;11.324;2023-01-15T06:22:12;83.23;;;64.20;;
9294;SDS011;4686;44.496;11.324;2023-01-15T06:24:39;87.10;;;64.10;;
9294;SDS011;4686;44.496;11.324;2023-01-15T06:27:06;93.20;;;65.00;;
9294;SDS011;4686;44.496;11.324;2023-01-15T06:29:34;95.60;;;66.80;;
9294;SDS011;4686;44.496;11.324;2023-01-15T06:32:01;95.77;;;68.57;;
9294;SDS011;4686;44.496;11.324;2023-01-15T06:34:28;93.63;;;71.40;;
9294;SDS011;4686;44.496;11.324;2023-01-15T06:36:55;95.33;;;68.17;;
9294;SDS011;4686;44.496;11.324;2023-01-15T06:39:24;92.13;;;66.10;;
9294;SDS011;4686;44.496;11.324;2023-01-15T06:41:51;92.20;;;66.17;;
9294;SDS011;4686;44.496;11.324;2023-01-15T06:44:36;89.27;;;67.37;;
9294;SDS011;4686;44.496;11.324;2023-01-15T06:47:21;95.13;;;65.50;;
9294;SDS011;4686;44.496;11.324;2023-01-15T06:49:49;85.03;;;62.97;;
9294;SDS011;4686;44.496;11.324;2023-01-15T06:52:17;79.87;;;58.27;;
9294;SDS011;4686;44.496;11.324;2023-01-15T06:54:48;78.50;;;58.60;;
9294;SDS011;4686;44.496;11.324;2023-01-15T06:57:17;85.10;;;57.60;;
9294;SDS011;4686;44.496;11.324;2023-01-15T06:59:45;77.90;;;58.37;;
9294;SDS011;4686;44.496;11.324;2023-01-15T07:02:12;74.60;;;57.50;;
9294;SDS011;4686;44.496;11.324;2023-01-15T07:04:40;80.90;;;62.33;;
9294;SDS011;4686;44.496;11.324;2023-01-15T07:07:07;83.13;;;61.33;;
9294;SDS011;4686;44.496;11.324;2023-01-15T07:09:34;88.53;;;65.63;;
9294;SDS011;4686;44.496;11.324;2023-01-15T07:12:03;97.20;;;64.50;;
9294;SDS011;4686;44.496;11.324;2023-01-15T07:14:31;91.83;;;66.03;;
9294;SDS011;4686;44.496;11.324;2023-01-15T07:16:58;93.50;;;68.30;;
9294;SDS011;4686;44.496;11.324;2023-01-15T07:19:25;93.30;;;68.00;;
9294;SDS011;4686;44.496;11.324;2023-01-15T07:21:52;95.63;;;67.30;;
9294;SDS011;4686;44.496;11.324;2023-01-15T07:24:20;92.40;;;68.07;;
9294;SDS011;4686;44.496;11.324;2023-01-15T07:26:48;95.20;;;68.13;;
9294;SDS011;4686;44.496;11.324;2023-01-15T07:29:17;98.00;;;74.20;;
9294;SDS011;4686;44.496;11.324;2023-01-15T07:31:44;90.07;;;67.77;;
9294;SDS011;4686;44.496;11.324;2023-01-15T07:34:12;97.10;;;72.07;;
9294;SDS011;4686;44.496;11.324;2023-01-15T07:36:39;105.37;;;74.07;;
9294;SDS011;4686;44.496;11.324;2023-01-15T07:39:07;96.30;;;71.47;;
9294;SDS011;4686;44.496;11.324;2023-01-15T07:41:35;97.13;;;73.10;;
9294;SDS011;4686;44.496;11.324;2023-01-15T07:44:21;102.83;;;73.67;;
9294;SDS011;4686;44.496;11.324;2023-01-15T07:47:08;95.97;;;72.07;;
9294;SDS011;4686;44.496;11.324;2023-01-15T07:50:01;104.47;;;75.43;;
9294;SDS011;4686;44.496;11.324;2023-01-15T07:52:28;108.97;;;76.70;;
9294;SDS011;4686;44.496;11.324;2023-01-15T07:54:57;100.70;;;72.33;;
9294;SDS011;4686;44.496;11.324;2023-01-15T07:57:25;108.90;;;77.83;;
9294;SDS011;4686;44.496;11.324;2023-01-15T07:59:53;92.00;;;71.57;;
9294;SDS011;4686;44.496;11.324;2023-01-15T08:02:21;104.40;;;74.20;;
9294;SDS011;4686;44.496;11.324;2023-01-15T08:04:50;104.30;;;74.63;;
9294;SDS011;4686;44.496;11.324;2023-01-15T08:07:17;102.67;;;75.97;;
9294;SDS011;4686;44.496;11.324;2023-01-15T08:09:44;99.93;;;75.17;;
9294;SDS011;4686;44.496;11.324;2023-01-15T08:12:12;103.70;;;76.03;;
9294;SDS011;4686;44.496;11.324;2023-01-15T08:14:59;103.03;;;73.00;;
9294;SDS011;4686;44.496;11.324;2023-01-15T08:17:39;104.20;;;73.27;;
9294;SDS011;4686;44.496;11.324;2023-01-15T08:20:08;106.47;;;74.17;;
9294;SDS011;4686;44.496;11.324;2023-01-15T08:22:39;100.67;;;71.47;;
9294;SDS011;4686;44.496;11.324;2023-01-15T08:25:07;101.30;;;74.47;;
9294;SDS011;4686;44.496;11.324;2023-01-15T08:27:34;101.70;;;73.97;;
9294;SDS011;4686;44.496;11.324;2023-01-15T08:30:04;97.20;;;75.17;;
9294;SDS011;4686;44.496;11.324;2023-01-15T08:32:31;105.33;;;76.17;;
9294;SDS011;4686;44.496;11.324;2023-01-15T08:34:58;103.53;;;71.60;;
9294;SDS011;4686;44.496;11.324;2023-01-15T08:37:25;102.83;;;72.80;;
9294;SDS011;4686;44.496;11.324;2023-01-15T08:39:53;104.63;;;75.50;;
9294;SDS011;4686;44.496;11.324;2023-01-15T08:42:20;104.50;;;73.63;;
9294;SDS011;4686;44.496;11.324;2023-01-15T08:44:47;95.53;;;72.03;;
9294;SDS011;4686;44.496;11.324;2023-01-15T08:47:16;94.77;;;71.30;;
9294;SDS011;4686;44.496;11.324;2023-01-15T08:49:45;97.57;;;71.90;;
9294;SDS011;4686;44.496;11.324;2023-01-15T08:52:12;102.93;;;73.47;;
9294;SDS011;4686;44.496;11.324;2023-01-15T08:54:40;102.17;;;74.30;;
9294;SDS011;4686;44.496;11.324;2023-01-15T08:57:07;92.53;;;67.50;;
9294;SDS011;4686;44.496;11.324;2023-01-15T08:59:36;94.83;;;73.33;;
9294;SDS011;4686;44.496;11.324;2023-01-15T09:02:03;121.33;;;75.30;;
9294;SDS011;4686;44.496;11.324;2023-01-15T09:04:31;130.23;;;87.70;;
9294;SDS011;4686;44.496;11.324;2023-01-15T09:06:59;114.87;;;78.47;;
9294;SDS011;4686;44.496;11.324;2023-01-15T09:09:26;99.20;;;73.23;;
9294;SDS011;4686;44.496;11.324;2023-01-15T09:11:53;95.10;;;72.53;;
9294;SDS011;4686;44.496;11.324;2023-01-15T09:14:21;95.13;;;68.57;;
9294;SDS011;4686;44.496;11.324;2023-01-15T09:16:48;97.87;;;74.10;;
9294;SDS011;4686;44.496;11.324;2023-01-15T09:19:15;95.10;;;70.70;;
9294;SDS011;4686;44.496;11.324;2023-01-15T09:21:44;104.90;;;70.77;;
9294;SDS011;4686;44.496;11.324;2023-01-15T09:24:14;94.27;;;70.50;;
9294;SDS011;4686;44.496;11.324;2023-01-15T09:26:41;100.40;;;72.70;;
9294;SDS011;4686;44.496;11.324;2023-01-15T09:29:09;98.77;;;70.60;;
9294;SDS011;4686;44.496;11.324;2023-01-15T09:31:36;96.43;;;71.13;;
9294;SDS011;4686;44.496;11.324;2023-01-15T09:34:03;98.63;;;72.03;;
9294;SDS011;4686;44.496;11.324;2023-01-15T09:36:33;96.53;;;72.93;;
9294;SDS011;4686;44.496;11.324;2023-01-15T09:39:02;95.20;;;74.00;;
9294;SDS011;4686;44.496;11.324;2023-01-15T09:41:32;102.70;;;74.77;;
9294;SDS011;4686;44.496;11.324;2023-01-15T09:44:20;103.13;;;74.23;;
9294;SDS011;4686;44.496;11.324;2023-01-15T09:46:55;101.83;;;74.17;;
9294;SDS011;4686;44.496;11.324;2023-01-15T09:49:27;98.67;;;72.87;;
9294;SDS011;4686;44.496;11.324;2023-01-15T09:52:01;99.50;;;75.40;;
9294;SDS011;4686;44.496;11.324;2023-01-15T09:54:37;93.43;;;72.33;;
9294;SDS011;4686;44.496;11.324;2023-01-15T09:57:09;95.77;;;73.97;;
9294;SDS011;4686;44.496;11.324;2023-01-15T09:59:38;104.10;;;73.27;;
9294;SDS011;4686;44.496;11.324;2023-01-15T10:02:11;96.63;;;73.87;;
9294;SDS011;4686;44.496;11.324;2023-01-15T10:04:41;99.57;;;72.77;;
9294;SDS011;4686;44.496;11.324;2023-01-15T10:07:11;99.00;;;75.50;;
9294;SDS011;4686;44.496;11.324;2023-01-15T10:09:44;98.27;;;73.27;;
9294;SDS011;4686;44.496;11.324;2023-01-15T10:12:15;106.23;;;72.67;;
9294;SDS011;4686;44.496;11.324;2023-01-15T10:14:58;94.20;;;72.10;;
9294;SDS011;4686;44.496;11.324;2023-01-15T10:17:27;91.83;;;71.20;;
9294;SDS011;4686;44.496;11.324;2023-01-15T10:19:54;98.00;;;71.67;;
9294;SDS011;4686;44.496;11.324;2023-01-15T10:22:25;104.13;;;75.13;;
9294;SDS011;4686;44.496;11.324;2023-01-15T10:24:57;93.37;;;70.73;;
9294;SDS011;4686;44.496;11.324;2023-01-15T10:27:29;100.27;;;72.17;;
9294;SDS011;4686;44.496;11.324;2023-01-15T10:30:04;98.53;;;73.90;;
9294;SDS011;4686;44.496;11.324;2023-01-15T10:32:38;97.50;;;72.37;;
9294;SDS011;4686;44.496;11.324;2023-01-15T10:35:16;94.17;;;72.80;;
9294;SDS011;4686;44.496;11.324;2023-01-15T10:37:47;98.67;;;69.93;;
9294;SDS011;4686;44.496;11.324;2023-01-15T10:40:26;97.30;;;70.10;;
9294;SDS011;4686;44.496;11.324;2023-01-15T10:42:58;94.93;;;71.30;;
9294;SDS011;4686;44.496;11.324;2023-01-15T10:45:32;93.43;;;71.53;;
9294;SDS011;4686;44.496;11.324;2023-01-15T10:48:04;95.40;;;69.80;;
9294;SDS011;4686;44.496;11.324;2023-01-15T10:50:32;95.20;;;71.00;;
9294;SDS011;4686;44.496;11.324;2023-01-15T10:53:01;95.70;;;72.47;;
9294;SDS011;4686;44.496;11.324;2023-01-15T10:55:35;106.13;;;73.30;;
9294;SDS011;4686;44.496;11.324;2023-01-15T10:58:07;103.87;;;76.93;;
9294;SDS011;4686;44.496;11.324;2023-01-15T11:00:38;97.03;;;74.00;;
9294;SDS011;4686;44.496;11.324;2023-01-15T11:03:09;90.93;;;70.70;;
9294;SDS011;4686;44.496;11.324;2023-01-15T11:05:40;96.60;;;74.77;;
9294;SDS011;4686;44.496;11.324;2023-01-15T11:08:12;98.83;;;73.30;;
9294;SDS011;4686;44.496;11.324;2023-01-15T11:10:42;98.00;;;74.77;;
9294;SDS011;4686;44.496;11.324;2023-01-15T11:13:14;101.87;;;76.07;;
9294;SDS011;4686;44.496;11.324;2023-01-15T11:16:01;102.27;;;78.50;;
9294;SDS011;4686;44.496;11.324;2023-01-15T11:18:45;96.17;;;74.10;;
9294;SDS011;4686;44.496;11.324;2023-01-15T11:21:38;96.13;;;73.30;;
9294;SDS011;4686;44.496;11.324;2023-01-15T11:24:13;103.23;;;77.77;;
9294;SDS011;4686;44.496;11.324;2023-01-15T11:26:45;107.97;;;79.20;;
9294;SDS011;4686;44.496;11.324;2023-01-15T11:29:13;105.57;;;76.93;;
9294;SDS011;4686;44.496;11.324;2023-01-15T11:31:42;99.60;;;76.00;;
9294;SDS011;4686;44.496;11.324;2023-01-15T11:34:15;102.40;;;77.47;;
9294;SDS011;4686;44.496;11.324;2023-01-15T11:36:45;100.53;;;78.13;;
9294;SDS011;4686;44.496;11.324;2023-01-15T11:39:20;95.90;;;75.00;;
9294;SDS011;4686;44.496;11.324;2023-01-15T11:41:49;97.67;;;74.23;;
9294;SDS011;4686;44.496;11.324;2023-01-15T11:44:48;99.07;;;75.80;;
9294;SDS011;4686;44.496;11.324;2023-01-15T11:47:34;108.70;;;77.37;;
9294;SDS011;4686;44.496;11.324;2023-01-15T11:50:20;98.50;;;78.10;;
9294;SDS011;4686;44.496;11.324;2023-01-15T11:53:06;117.40;;;82.67;;
9294;SDS011;4686;44.496;11.324;2023-01-15T11:55:34;129.30;;;93.47;;
9294;SDS011;4686;44.496;11.324;2023-01-15T11:58:04;108.43;;;86.17;;
9294;SDS011;4686;44.496;11.324;2023-01-15T12:00:35;102.57;;;80.37;;
9294;SDS011;4686;44.496;11.324;2023-01-15T12:03:11;113.57;;;82.13;;
9294;SDS011;4686;44.496;11.324;2023-01-15T12:05:44;116.50;;;85.93;;
9294;SDS011;4686;44.496;11.324;2023-01-15T12:08:13;108.95;;;80.97;;
9294;SDS011;4686;44.496;11.324;2023-01-15T12:10:45;113.20;;;81.53;;
9294;SDS011;4686;44.496;11.324;2023-01-15T12:13:42;106.50;;;80.27;;
9294;SDS011;4686;44.496;11.324;2023-01-15T12:16:12;114.53;;;85.83;;
9294;SDS011;4686;44.496;11.324;2023-01-15T12:18:57;176.13;;;121.53;;
9294;SDS011;4686;44.496;11.324;2023-01-15T12:21:32;110.90;;;80.77;;
9294;SDS011;4686;44.496;11.324;2023-01-15T12:24:09;107.73;;;83.73;;
9294;SDS011;4686;44.496;11.324;2023-01-15T12:26:39;119.70;;;89.30;;
9294;SDS011;4686;44.496;11.324;2023-01-15T12:29:10;133.73;;;100.07;;
9294;SDS011;4686;44.496;11.324;2023-01-15T12:31:40;110.60;;;83.47;;
9294;SDS011;4686;44.496;11.324;2023-01-15T12:34:13;99.13;;;78.07;;
9294;SDS011;4686;44.496;11.324;2023-01-15T12:36:44;100.20;;;76.40;;
9294;SDS011;4686;44.496;11.324;2023-01-15T12:39:21;104.33;;;78.53;;
9294;SDS011;4686;44.496;11.324;2023-01-15T12:41:50;98.43;;;77.97;;
9294;SDS011;4686;44.496;11.324;2023-01-15T12:44:39;98.93;;;75.20;;
9294;SDS011;4686;44.496;11.324;2023-01-15T12:47:26;98.27;;;77.30;;
9294;SDS011;4686;44.496;11.324;2023-01-15T12:49:56;105.07;;;76.97;;
9294;SDS011;4686;44.496;11.324;2023-01-15T12:52:26;105.43;;;79.43;;
9294;SDS011;4686;44.496;11.324;2023-01-15T12:54:56;99.30;;;77.00;;
9294;SDS011;4686;44.496;11.324;2023-01-15T12:57:27;97.70;;;74.60;;
9294;SDS011;4686;44.496;11.324;2023-01-15T12:59:59;108.43;;;80.10;;
9294;SDS011;4686;44.496;11.324;2023-01-15T13:02:32;109.30;;;79.40;;
9294;SDS011;4686;44.496;11.324;2023-01-15T13:05:04;98.70;;;76.27;;
9294;SDS011;4686;44.496;11.324;2023-01-15T13:07:33;103.70;;;78.80;;
9294;SDS011;4686;44.496;11.324;2023-01-15T13:10:03;100.73;;;77.50;;
9294;SDS011;4686;44.496;11.324;2023-01-15T13:12:33;98.80;;;74.20;;
9294;SDS011;4686;44.496;11.324;2023-01-15T13:15:02;104.33;;;79.40;;
9294;SDS011;4686;44.496;11.324;2023-01-15T13:17:32;104.70;;;77.83;;
9294;SDS011;4686;44.496;11.324;2023-01-15T13:20:08;101.37;;;79.70;;
9294;SDS011;4686;44.496;11.324;2023-01-15T13:22:38;105.53;;;79.73;;
9294;SDS011;4686;44.496;11.324;2023-01-15T13:28:12;99.13;;;77.73;;
9294;SDS011;4686;44.496;11.324;2023-01-15T13:30:46;107.27;;;77.03;;
9294;SDS011;4686;44.496;11.324;2023-01-15T13:33:21;110.80;;;82.03;;
9294;SDS011;4686;44.496;11.324;2023-01-15T13:35:51;107.00;;;78.70;;
9294;SDS011;4686;44.496;11.324;2023-01-15T13:38:20;101.53;;;76.40;;
9294;SDS011;4686;44.496;11.324;2023-01-15T13:40:49;102.00;;;79.83;;
9294;SDS011;4686;44.496;11.324;2023-01-15T13:43:26;107.67;;;81.07;;
9294;SDS011;4686;44.496;11.324;2023-01-15T13:45:57;105.57;;;78.30;;
9294;SDS011;4686;44.496;11.324;2023-01-15T13:48:27;100.83;;;80.73;;
9294;SDS011;4686;44.496;11.324;2023-01-15T13:50:56;105.37;;;78.20;;
9294;SDS011;4686;44.496;11.324;2023-01-15T13:53:25;100.83;;;79.80;;
9294;SDS011;4686;44.496;11.324;2023-01-15T13:55:53;107.67;;;81.00;;
9294;SDS011;4686;44.496;11.324;2023-01-15T13:58:25;101.33;;;77.13;;
9294;SDS011;4686;44.496;11.324;2023-01-15T14:01:01;105.67;;;78.27;;
9294;SDS011;4686;44.496;11.324;2023-01-15T14:03:29;103.73;;;80.43;;
9294;SDS011;4686;44.496;11.324;2023-01-15T14:05:57;105.47;;;79.13;;
9294;SDS011;4686;44.496;11.324;2023-01-15T14:08:25;106.70;;;82.40;;
9294;SDS011;4686;44.496;11.324;2023-01-15T14:10:53;103.67;;;78.57;;
9294;SDS011;4686;44.496;11.324;2023-01-15T14:13:40;108.73;;;77.47;;
9294;SDS011;4686;44.496;11.324;2023-01-15T14:19:00;109.70;;;79.60;;
9294;SDS011;4686;44.496;11.324;2023-01-15T14:21:30;104.43;;;80.93;;
9294;SDS011;4686;44.496;11.324;2023-01-15T14:24:05;96.67;;;75.30;;
9294;SDS011;4686;44.496;11.324;2023-01-15T14:26:40;100.27;;;76.10;;
9294;SDS011;4686;44.496;11.324;2023-01-15T14:29:21;98.70;;;77.33;;
9294;SDS011;4686;44.496;11.324;2023-01-15T14:31:56;105.20;;;79.63;;
9294;SDS011;4686;44.496;11.324;2023-01-15T14:34:31;105.07;;;78.07;;
9294;SDS011;4686;44.496;11.324;2023-01-15T14:37:05;100.90;;;78.83;;
9294;SDS011;4686;44.496;11.324;2023-01-15T14:39:37;103.80;;;77.77;;
9294;SDS011;4686;44.496;11.324;2023-01-15T14:42:10;98.70;;;75.80;;
9294;SDS011;4686;44.496;11.324;2023-01-15T14:44:58;110.03;;;79.20;;
9294;SDS011;4686;44.496;11.324;2023-01-15T14:47:28;99.27;;;76.30;;
9294;SDS011;4686;44.496;11.324;2023-01-15T14:50:01;104.43;;;75.27;;
9294;SDS011;4686;44.496;11.324;2023-01-15T14:52:30;106.37;;;79.47;;
9294;SDS011;4686;44.496;11.324;2023-01-15T14:55:00;105.63;;;79.67;;
9294;SDS011;4686;44.496;11.324;2023-01-15T14:57:27;97.63;;;79.60;;